Time;durP1;ratioP1;P1;durP2;ratioP2;P2;SDS_P1;SDS_P2;PMS_P1;PMS_P2;Temp;Humidity;BMP_temperature;BMP_pressure;BME280_temperature;BME280_humidity;BME280_pressure;Samples;Min_cycle;Max_cycle;Signal;HPM_P1;HPM_P2
2022/09/11 00:01:06;;;;;;;8.70;6.93;;;20.30;50.70;;;;;;5089226;28;20317;-42
2022/09/11 00:03:33;;;;;;;8.13;6.95;;;20.30;50.60;;;;;;5088841;28;20286;-42
2022/09/11 00:06:07;;;;;;;7.13;5.97;;;20.30;50.60;;;;;;5088637;28;20262;-42
2022/09/11 00:08:33;;;;;;;7.60;5.32;;;20.30;50.60;;;;;;5088923;28;20317;-42
2022/09/11 00:11:07;;;;;;;5.05;4.50;;;20.30;50.50;;;;;;5088820;28;20176;-41
2022/09/11 00:13:34;;;;;;;5.57;3.92;;;20.30;50.50;;;;;;5088989;28;20163;-42
2022/09/11 00:16:02;;;;;;;5.93;3.80;;;20.20;50.30;;;;;;5088462;28;20270;-41
2022/09/11 00:18:28;;;;;;;8.00;3.72;;;20.20;50.40;;;;;;5088885;28;20180;-42
2022/09/11 00:20:56;;;;;;;5.15;4.15;;;20.20;50.30;;;;;;5088614;28;20180;-40
2022/09/11 00:23:24;;;;;;;4.47;3.85;;;20.20;50.40;;;;;;5088444;28;20243;-41
2022/09/11 00:25:50;;;;;;;5.55;4.15;;;20.10;50.40;;;;;;5088219;28;20271;-41
2022/09/11 00:28:18;;;;;;;5.07;4.57;;;20.20;50.30;;;;;;5088451;28;20263;-42
2022/09/11 00:30:45;;;;;;;5.00;3.75;;;20.20;50.20;;;;;;5088422;28;20403;-42
2022/09/11 00:33:12;;;;;;;6.35;4.47;;;20.10;50.10;;;;;;5086802;28;20195;-42
2022/09/11 00:35:39;;;;;;;12.95;4.05;;;20.10;50.20;;;;;;5074332;28;20195;-41
2022/09/11 00:38:08;;;;;;;8.95;4.30;;;20.10;50.00;;;;;;5074875;28;20672;-42
2022/09/11 00:40:44;;;;;;;6.38;5.22;;;20.10;50.00;;;;;;5074704;28;20280;-42
2022/09/11 00:43:15;;;;;;;6.38;4.50;;;20.00;50.60;;;;;;5074866;28;20250;-42
2022/09/11 00:45:46;;;;;;;9.05;5.65;;;20.00;49.90;;;;;;5074487;28;20283;-43
2022/09/11 00:48:19;;;;;;;6.05;4.70;;;19.90;50.00;;;;;;5074713;28;20157;-42
2022/09/11 00:50:45;;;;;;;6.05;4.00;;;19.90;50.10;;;;;;5074522;28;20587;-42
2022/09/11 00:53:16;;;;;;;7.25;5.65;;;19.90;50.10;;;;;;5074517;28;20222;-43
2022/09/11 00:55:47;;;;;;;7.13;5.55;;;19.80;50.10;;;;;;5074568;28;20242;-42
2022/09/11 00:58:20;;;;;;;8.48;6.28;;;19.80;50.10;;;;;;5074465;28;20204;-41
2022/09/11 01:00:46;;;;;;;5.38;4.78;;;19.70;50.20;;;;;;5074681;28;20239;-42
2022/09/11 01:03:13;;;;;;;6.75;4.57;;;19.70;50.20;;;;;;5074298;28;20204;-42
2022/09/11 01:05:42;;;;;;;5.78;4.55;;;19.70;50.30;;;;;;5074265;28;20326;-42
2022/09/11 01:08:09;;;;;;;8.40;5.18;;;19.60;50.30;;;;;;5074541;28;20647;-42
2022/09/11 01:10:58;;;;;;;9.25;5.18;;;19.60;50.40;;;;;;5074395;28;20184;-42
2022/09/11 01:13:32;;;;;;;8.10;4.07;;;19.60;50.40;;;;;;5073610;28;20184;-43
2022/09/11 01:16:11;;;;;;;6.10;4.88;;;19.60;50.40;;;;;;5073864;28;20196;-42
2022/09/11 01:19:02;;;;;;;7.18;5.22;;;19.60;50.30;;;;;;5074215;28;20168;-41
2022/09/11 01:21:45;;;;;;;5.50;4.30;;;19.60;50.20;;;;;;5072714;28;20173;-42
2022/09/11 01:24:31;;;;;;;5.95;3.97;;;19.60;50.20;;;;;;5073991;28;20617;-41
2022/09/11 01:27:36;;;;;;;6.45;4.75;;;19.50;50.10;;;;;;5073923;28;20593;-42
2022/09/11 01:30:27;;;;;;;7.80;3.80;;;19.50;50.00;;;;;;5073843;28;20214;-42
2022/09/11 01:33:02;;;;;;;6.13;4.15;;;19.40;49.90;;;;;;5073890;28;20168;-42
2022/09/11 01:35:57;;;;;;;3.95;3.55;;;19.40;50.00;;;;;;5073679;28;20223;-41
2022/09/11 01:38:40;;;;;;;3.90;2.92;;;19.40;50.00;;;;;;5073685;28;20599;-42
2022/09/11 01:41:27;;;;;;;4.10;3.33;;;19.30;50.00;;;;;;5073622;28;20255;-41
2022/09/11 01:43:55;;;;;;;4.40;3.78;;;19.30;50.10;;;;;;5073643;28;20216;-41
2022/09/11 01:46:24;;;;;;;4.80;3.97;;;19.20;50.10;;;;;;5072271;28;20196;-41
2022/09/11 01:49:20;;;;;;;4.65;3.35;;;19.20;50.10;;;;;;5073459;28;20176;-41
2022/09/11 01:51:51;;;;;;;3.80;2.80;;;19.20;49.90;;;;;;5072315;28;20667;-41
2022/09/11 01:54:21;;;;;;;4.60;4.10;;;19.20;50.00;;;;;;5073416;28;20663;-42
2022/09/11 01:56:55;;;;;;;4.25;3.85;;;19.10;50.00;;;;;;5073075;28;20203;-41
2022/09/11 01:59:26;;;;;;;4.78;3.40;;;19.10;50.10;;;;;;5073203;28;20165;-42
2022/09/11 02:02:01;;;;;;;3.83;3.05;;;19.10;50.00;;;;;;5073383;28;20261;-41
2022/09/11 02:04:36;;;;;;;5.28;3.60;;;19.10;50.00;;;;;;5073430;28;20247;-42
2022/09/11 02:07:29;;;;;;;5.28;3.30;;;19.10;50.00;;;;;;5073182;28;20253;-41
2022/09/11 02:10:19;;;;;;;6.28;3.58;;;19.10;50.00;;;;;;5072576;28;20357;-41
2022/09/11 02:13:16;;;;;;;3.28;2.97;;;19.10;49.90;;;;;;5072991;28;20172;-43
2022/09/11 02:15:47;;;;;;;4.20;3.33;;;19.10;50.10;;;;;;5072454;28;20211;-42
2022/09/11 02:18:24;;;;;;;3.88;3.47;;;19.00;50.10;;;;;;5072900;28;20579;-42
2022/09/11 02:20:51;;;;;;;6.30;3.63;;;19.00;50.10;;;;;;5072833;28;20180;-42
2022/09/11 02:23:17;;;;;;;4.15;3.65;;;19.00;50.20;;;;;;5072605;28;20721;-44
2022/09/11 02:25:43;;;;;;;5.43;3.40;;;18.90;50.30;;;;;;5072644;28;20541;-42
2022/09/11 02:28:10;;;;;;;4.47;3.57;;;19.00;50.30;;;;;;5071600;28;20218;-41
2022/09/11 02:30:38;;;;;;;3.35;2.95;;;18.90;50.40;;;;;;5072912;28;20204;-42
2022/09/11 02:33:04;;;;;;;5.45;3.90;;;19.00;50.50;;;;;;5072567;28;20532;-42
2022/09/11 02:35:38;;;;;;;4.60;2.97;;;18.90;50.40;;;;;;5072366;28;20175;-45
2022/09/11 02:38:25;;;;;;;3.33;2.72;;;18.90;50.40;;;;;;5072636;28;20195;-40
2022/09/11 02:41:14;;;;;;;3.63;2.58;;;18.90;50.30;;;;;;5072384;28;20165;-41
2022/09/11 02:44:20;;;;;;;3.72;3.30;;;18.90;50.40;;;;;;5071043;28;20212;-42
2022/09/11 02:46:58;;;;;;;3.05;2.38;;;18.90;50.40;;;;;;5071470;28;20204;-42
2022/09/11 02:49:36;;;;;;;3.70;3.03;;;18.80;50.40;;;;;;5072325;28;20244;-41
2022/09/11 02:52:24;;;;;;;3.92;3.30;;;18.80;50.30;;;;;;5072367;28;20168;-42
2022/09/11 02:55:21;;;;;;;3.58;2.90;;;18.80;50.40;;;;;;5072321;28;20206;-42
2022/09/11 02:58:21;;;;;;;4.35;3.17;;;18.80;50.40;;;;;;5072104;28;20493;-41
2022/09/11 03:00:47;;;;;;;3.38;3.08;;;18.70;50.40;;;;;;5071643;28;20175;-42
2022/09/11 03:03:14;;;;;;;6.40;2.92;;;18.70;50.50;;;;;;5072286;28;20212;-40
2022/09/11 03:05:41;;;;;;;4.07;2.97;;;18.70;50.20;;;;;;5071924;28;20291;-41
2022/09/11 03:08:07;;;;;;;4.68;3.25;;;18.70;50.20;;;;;;5072140;28;20644;-42
2022/09/11 03:10:33;;;;;;;3.13;2.85;;;18.70;50.80;;;;;;5072288;28;20180;-42
2022/09/11 03:12:59;;;;;;;4.45;3.00;;;18.60;50.20;;;;;;5072048;28;20168;-41
2022/09/11 03:15:25;;;;;;;3.17;2.43;;;18.60;50.10;;;;;;5071912;28;20180;-42
2022/09/11 03:17:51;;;;;;;4.10;2.80;;;18.60;50.20;;;;;;5071848;28;20279;-41
2022/09/11 03:20:19;;;;;;;5.53;2.88;;;18.60;50.10;;;;;;5072145;28;20203;-41
2022/09/11 03:22:44;;;;;;;3.08;2.75;;;18.60;50.10;;;;;;5071836;28;20283;-41
2022/09/11 03:25:10;;;;;;;4.80;2.80;;;18.50;50.10;;;;;;5071949;28;20846;-41
2022/09/11 03:27:40;;;;;;;4.15;3.00;;;18.50;50.00;;;;;;5071905;28;20169;-41
2022/09/11 03:30:07;;;;;;;3.22;2.92;;;18.50;50.00;;;;;;5071949;28;20214;-41
2022/09/11 03:32:33;;;;;;;4.95;2.65;;;18.50;50.00;;;;;;5072126;28;20275;-42
2022/09/11 03:35:00;;;;;;;3.20;2.90;;;18.50;50.00;;;;;;5071971;28;20687;-42
2022/09/11 03:37:26;;;;;;;3.90;2.72;;;18.50;50.00;;;;;;5071521;28;20744;-42
2022/09/11 03:39:53;;;;;;;7.40;2.73;;;18.40;49.90;;;;;;5072005;28;20180;-41
2022/09/11 03:42:19;;;;;;;3.03;2.80;;;18.40;50.00;;;;;;5071746;28;20291;-42
2022/09/11 03:44:45;;;;;;;3.05;2.75;;;18.40;49.90;;;;;;5071846;28;20581;-42
2022/09/11 03:47:12;;;;;;;3.88;2.92;;;18.40;50.40;;;;;;5072144;28;20207;-42
2022/09/11 03:49:38;;;;;;;2.80;1.92;;;18.40;49.80;;;;;;5071743;28;20173;-41
2022/09/11 03:52:04;;;;;;;5.10;3.10;;;18.40;49.90;;;;;;5071685;28;20230;-42
2022/09/11 03:54:31;;;;;;;3.60;2.95;;;18.40;49.80;;;;;;5071689;28;20439;-42
2022/09/11 03:56:57;;;;;;;4.70;3.28;;;18.30;49.80;;;;;;5071613;28;20205;-42
2022/09/11 03:59:24;;;;;;;3.50;3.20;;;18.30;49.60;;;;;;5071647;28;20165;-42
2022/09/11 04:01:50;;;;;;;3.17;2.70;;;18.30;49.60;;;;;;5071831;28;20267;-43
2022/09/11 04:04:16;;;;;;;7.50;3.35;;;18.30;49.60;;;;;;5071604;28;20664;-42
2022/09/11 04:06:43;;;;;;;5.05;3.00;;;18.20;49.80;;;;;;5071265;28;20250;-42
2022/09/11 04:09:09;;;;;;;4.18;2.90;;;18.20;49.80;;;;;;5072720;28;20551;-41
2022/09/11 04:11:37;;;;;;;3.95;3.40;;;18.20;49.90;;;;;;5075309;28;20169;-42
2022/09/11 04:14:05;;;;;;;3.58;2.67;;;18.20;49.90;;;;;;5075614;28;20251;-41
2022/09/11 04:16:34;;;;;;;3.65;3.35;;;18.20;50.00;;;;;;5074954;28;20303;-41
2022/09/11 04:19:00;;;;;;;3.20;2.63;;;18.10;50.10;;;;;;5075131;28;20258;-42
2022/09/11 04:21:27;;;;;;;4.35;3.22;;;18.20;50.10;;;;;;5073765;28;20662;-42
2022/09/11 04:23:58;;;;;;;3.35;2.90;;;18.20;50.10;;;;;;5074963;28;20648;-41
2022/09/11 04:26:27;;;;;;;3.75;2.70;;;18.20;50.20;;;;;;5075056;28;20271;-42
2022/09/11 04:28:53;;;;;;;4.00;3.42;;;18.10;50.10;;;;;;5075037;28;20251;-41
2022/09/11 04:31:20;;;;;;;5.20;3.25;;;18.10;50.00;;;;;;5074923;28;20222;-42
2022/09/11 04:33:46;;;;;;;4.05;3.15;;;18.10;50.10;;;;;;5074915;28;20176;-41
2022/09/11 04:36:16;;;;;;;3.65;2.78;;;18.10;50.00;;;;;;5074640;28;20191;-42
2022/09/11 04:38:42;;;;;;;3.70;3.15;;;18.10;50.00;;;;;;5074776;28;20562;-41
2022/09/11 04:41:08;;;;;;;3.08;2.47;;;18.00;50.10;;;;;;5075064;28;20207;-42
2022/09/11 04:43:36;;;;;;;4.05;3.40;;;18.10;50.30;;;;;;5074691;28;20203;-41
2022/09/11 04:46:07;;;;;;;3.33;3.03;;;18.10;50.40;;;;;;5074411;28;20188;-41
2022/09/11 04:48:33;;;;;;;4.07;3.15;;;18.10;50.50;;;;;;5074709;28;20203;-43
2022/09/11 04:51:05;;;;;;;4.00;3.30;;;18.10;50.60;;;;;;5074616;28;20230;-42
2022/09/11 04:53:31;;;;;;;3.50;3.08;;;18.20;50.60;;;;;;5074500;28;20169;-42
2022/09/11 04:56:12;;;;;;;3.25;2.85;;;18.20;50.80;;;;;;5074209;28;20287;-43
2022/09/11 04:58:38;;;;;;;3.28;2.97;;;18.20;51.50;;;;;;5074647;28;20153;-42
2022/09/11 05:01:09;;;;;;;5.53;3.25;;;18.20;50.80;;;;;;5073157;28;20536;-41
2022/09/11 05:03:34;;;;;;;2.63;2.42;;;18.30;50.90;;;;;;5074304;28;20250;-39
2022/09/11 05:06:08;;;;;;;3.13;2.83;;;18.30;51.00;;;;;;5074187;28;20583;-42
2022/09/11 05:08:35;;;;;;;3.97;3.30;;;18.30;51.10;;;;;;5074299;28;20148;-41
2022/09/11 05:11:04;;;;;;;3.50;3.20;;;18.30;51.10;;;;;;5074467;28;20189;-42
2022/09/11 05:13:30;;;;;;;3.15;2.85;;;18.30;51.00;;;;;;5074447;28;20203;-42
2022/09/11 05:16:13;;;;;;;4.18;3.25;;;18.30;51.00;;;;;;5073852;28;20204;-42
2022/09/11 05:18:41;;;;;;;4.35;2.97;;;18.40;51.20;;;;;;5074089;28;20184;-41
2022/09/11 05:21:12;;;;;;;5.05;3.10;;;18.40;51.40;;;;;;5073876;28;20260;-42
2022/09/11 05:23:39;;;;;;;3.63;3.10;;;18.50;51.50;;;;;;5073723;28;20212;-42
2022/09/11 05:26:07;;;;;;;4.30;3.90;;;18.50;51.60;;;;;;5074005;28;20664;-41
2022/09/11 05:28:33;;;;;;;7.03;3.80;;;18.50;51.60;;;;;;5074071;28;20181;-41
2022/09/11 05:30:59;;;;;;;10.07;3.58;;;18.60;51.50;;;;;;5073957;28;20644;-41
2022/09/11 05:33:26;;;;;;;3.85;3.38;;;18.70;51.70;;;;;;5074368;28;20251;-39
2022/09/11 05:35:53;;;;;;;4.80;3.55;;;18.70;51.60;;;;;;5073981;28;20196;-41
2022/09/11 05:38:20;;;;;;;5.63;4.18;;;18.70;51.70;;;;;;5074019;28;20171;-40
2022/09/11 05:40:48;;;;;;;3.65;3.20;;;18.80;51.70;;;;;;5073915;28;20177;-43
2022/09/11 05:43:15;;;;;;;3.90;3.50;;;18.80;51.80;;;;;;5073541;28;20195;-43
2022/09/11 05:45:42;;;;;;;4.03;3.30;;;18.80;51.60;;;;;;5073224;28;20196;-41
2022/09/11 05:48:09;;;;;;;4.05;3.10;;;18.80;51.70;;;;;;5073516;28;20167;-43
2022/09/11 05:50:35;;;;;;;6.72;4.15;;;18.90;51.80;;;;;;5073428;28;20535;-43
2022/09/11 05:53:02;;;;;;;3.35;3.05;;;18.90;51.90;;;;;;5073650;28;20263;-42
2022/09/11 05:55:27;;;;;;;6.82;4.25;;;18.90;52.10;;;;;;5073192;28;20198;-42
2022/09/11 05:57:53;;;;;;;4.77;3.90;;;18.90;52.20;;;;;;5073443;28;20176;-41
2022/09/11 06:00:20;;;;;;;4.72;3.35;;;19.00;52.20;;;;;;5073220;28;20704;-42
2022/09/11 06:02:47;;;;;;;7.68;4.85;;;19.00;52.20;;;;;;5071913;28;20212;-41
2022/09/11 06:05:14;;;;;;;4.85;3.97;;;19.00;52.30;;;;;;5072989;28;20595;-42
2022/09/11 06:07:41;;;;;;;5.60;4.60;;;19.10;52.30;;;;;;5072806;28;20540;-42
2022/09/11 06:10:07;;;;;;;5.43;4.90;;;19.10;52.30;;;;;;5073383;28;20251;-43
2022/09/11 06:12:34;;;;;;;5.35;4.40;;;19.20;52.30;;;;;;5073049;28;20180;-41
2022/09/11 06:15:00;;;;;;;6.20;5.60;;;19.30;52.50;;;;;;5073264;28;20181;-41
2022/09/11 06:17:27;;;;;;;6.90;6.10;;;19.30;52.50;;;;;;5072619;28;20680;-42
2022/09/11 06:19:53;;;;;;;6.95;6.25;;;19.50;52.60;;;;;;5072796;28;20525;-43
2022/09/11 06:22:20;;;;;;;7.93;6.53;;;19.50;52.90;;;;;;5072760;28;20217;-43
2022/09/11 06:24:47;;;;;;;8.13;6.65;;;19.60;53.00;;;;;;5072746;28;20168;-41
2022/09/11 06:27:14;;;;;;;7.25;5.97;;;19.60;52.90;;;;;;5072552;28;20249;-42
2022/09/11 06:29:43;;;;;;;8.00;5.80;;;19.70;53.00;;;;;;5072624;28;20173;-42
2022/09/11 06:32:10;;;;;;;6.60;5.90;;;19.80;52.80;;;;;;5072052;28;20699;-42
2022/09/11 06:34:36;;;;;;;6.75;6.05;;;19.80;52.70;;;;;;5072534;28;20184;-41
2022/09/11 06:37:02;;;;;;;8.38;5.95;;;19.90;52.70;;;;;;5072300;28;20218;-43
2022/09/11 06:39:28;;;;;;;10.90;6.73;;;19.90;52.70;;;;;;5072534;28;20173;-41
2022/09/11 06:41:54;;;;;;;9.33;5.40;;;20.00;52.70;;;;;;5072398;28;20802;-41
2022/09/11 06:44:19;;;;;;;9.70;6.80;;;20.00;52.70;;;;;;5072791;28;20267;-42
2022/09/11 06:46:46;;;;;;;8.63;7.07;;;20.00;52.70;;;;;;5072152;28;20260;-43
2022/09/11 06:49:13;;;;;;;10.20;7.30;;;20.00;52.70;;;;;;5072595;28;20403;-42
2022/09/11 06:51:39;;;;;;;8.90;7.45;;;20.00;52.90;;;;;;5072596;28;20176;-42
2022/09/11 06:54:05;;;;;;;10.20;8.70;;;20.00;53.00;;;;;;5072483;28;20260;-42
2022/09/11 06:56:31;;;;;;;9.98;8.52;;;20.10;53.20;;;;;;5071973;28;20192;-42
2022/09/11 06:58:57;;;;;;;15.63;9.48;;;20.10;53.00;;;;;;5072280;28;20176;-41
2022/09/11 07:01:24;;;;;;;10.60;9.52;;;20.10;53.00;;;;;;5072481;28;20176;-42
2022/09/11 07:03:52;;;;;;;10.07;9.07;;;20.10;52.90;;;;;;5072147;28;20203;-41
2022/09/11 07:06:20;;;;;;;10.07;7.70;;;20.10;53.00;;;;;;5071854;28;20556;-41
2022/09/11 07:08:51;;;;;;;11.70;7.65;;;20.20;52.70;;;;;;5072474;28;20265;-43
2022/09/11 07:11:18;;;;;;;9.85;8.85;;;20.20;52.60;;;;;;5072135;28;20168;-42
2022/09/11 07:13:44;;;;;;;8.82;7.93;;;20.20;52.80;;;;;;5072126;28;20212;-42
2022/09/11 07:16:12;;;;;;;11.60;9.20;;;20.30;53.00;;;;;;5071749;28;20188;-43
2022/09/11 07:18:40;;;;;;;10.27;9.18;;;20.30;53.10;;;;;;5072289;28;20180;-41
2022/09/11 07:21:21;;;;;;;9.90;8.90;;;20.30;52.90;;;;;;5072013;28;20238;-42
2022/09/11 07:23:53;;;;;;;12.68;8.77;;;20.40;52.80;;;;;;5071882;28;20228;-42
2022/09/11 07:26:20;;;;;;;10.95;8.80;;;20.40;52.70;;;;;;5071745;28;20192;-42
2022/09/11 07:28:50;;;;;;;10.40;9.30;;;20.40;52.70;;;;;;5071971;28;20178;-42
2022/09/11 07:31:25;;;;;;;12.38;9.35;;;20.40;52.80;;;;;;5072157;28;20171;-41
2022/09/11 07:33:51;;;;;;;13.60;8.07;;;20.40;52.70;;;;;;5071911;28;20198;-41
2022/09/11 07:36:25;;;;;;;12.93;9.15;;;20.40;52.80;;;;;;5071744;28;20188;-42
2022/09/11 07:38:53;;;;;;;8.85;7.93;;;20.40;52.80;;;;;;5072516;28;20576;-41
2022/09/11 07:41:21;;;;;;;10.65;9.55;;;20.50;52.80;;;;;;5071729;28;20579;-42
2022/09/11 07:43:50;;;;;;;9.80;8.80;;;20.60;52.80;;;;;;5072427;28;20711;-43
2022/09/11 07:46:16;;;;;;;14.23;8.32;;;20.60;52.80;;;;;;5075560;28;20189;-41
2022/09/11 07:48:42;;;;;;;10.30;8.40;;;20.70;52.80;;;;;;5075856;28;20180;-42
2022/09/11 07:51:10;;;;;;;8.47;7.63;;;20.70;52.70;;;;;;5075730;28;20529;-40
2022/09/11 07:53:45;;;;;;;9.93;8.93;;;20.80;52.50;;;;;;5074329;28;20180;-41
2022/09/11 07:56:21;;;;;;;8.98;8.05;;;20.80;52.90;;;;;;5075446;28;20742;-43
2022/09/11 07:58:48;;;;;;;12.35;8.40;;;20.90;52.90;;;;;;5075786;28;20184;-43
2022/09/11 08:01:17;;;;;;;8.55;7.63;;;20.90;52.60;;;;;;5075528;28;20189;-42
2022/09/11 08:03:44;;;;;;;8.80;7.90;;;21.00;52.60;;;;;;5075373;28;20208;-42
2022/09/11 08:06:15;;;;;;;8.98;8.07;;;21.10;52.60;;;;;;5075099;28;20223;-42
2022/09/11 08:08:42;;;;;;;7.90;7.10;;;21.10;52.30;;;;;;5075715;28;20580;-42
2022/09/11 08:11:13;;;;;;;10.13;8.20;;;21.20;52.40;;;;;;5075412;28;20217;-41
2022/09/11 08:13:39;;;;;;;7.57;6.80;;;21.20;52.00;;;;;;5075628;28;20252;-42
2022/09/11 08:16:05;;;;;;;9.97;7.13;;;21.20;51.80;;;;;;5073801;28;20335;-41
2022/09/11 08:18:31;;;;;;;10.13;7.65;;;21.30;51.80;;;;;;5075147;28;20448;-41
2022/09/11 08:21:07;;;;;;;8.17;7.33;;;21.30;51.90;;;;;;5075084;28;20267;-42
2022/09/11 08:23:34;;;;;;;14.13;7.50;;;21.40;52.00;;;;;;5074928;28;20458;-42
2022/09/11 08:26:07;;;;;;;10.52;7.72;;;21.40;51.90;;;;;;5074782;28;20193;-41
2022/09/11 08:28:34;;;;;;;8.75;7.85;;;21.40;51.40;;;;;;5075064;28;20171;-42
2022/09/11 08:31:00;;;;;;;9.27;7.32;;;21.40;51.30;;;;;;5074995;28;20246;-43
2022/09/11 08:33:30;;;;;;;10.10;9.02;;;21.30;51.30;;;;;;5074781;28;20168;-41
2022/09/11 08:36:04;;;;;;;8.68;7.88;;;21.30;51.10;;;;;;5074831;28;20249;-40
2022/09/11 08:38:30;;;;;;;9.95;8.95;;;21.30;51.00;;;;;;5074879;28;20157;-43
2022/09/11 08:40:58;;;;;;;10.85;8.63;;;21.20;51.20;;;;;;5074795;28;20177;-43
2022/09/11 08:43:34;;;;;;;11.60;10.45;;;21.30;51.40;;;;;;5074842;28;20200;-43
2022/09/11 08:46:08;;;;;;;10.47;9.27;;;21.20;51.50;;;;;;5074404;28;20192;-42
2022/09/11 08:49:12;;;;;;;12.55;10.77;;;21.20;51.50;;;;;;5074687;28;20518;-42
2022/09/11 08:51:39;;;;;;;11.88;10.02;;;21.10;51.30;;;;;;5074687;28;20153;-42
2022/09/11 08:54:05;;;;;;;13.00;10.57;;;21.10;51.50;;;;;;5074456;28;20185;-42
2022/09/11 08:56:35;;;;;;;10.40;9.30;;;21.10;51.70;;;;;;5074027;28;20786;-42
2022/09/11 08:59:06;;;;;;;10.93;9.67;;;21.10;51.80;;;;;;5074492;28;20562;-42
2022/09/11 09:02:09;;;;;;;13.27;11.15;;;21.10;51.90;;;;;;5074397;28;20494;-40
2022/09/11 09:04:50;;;;;;;12.23;10.25;;;21.10;51.90;;;;;;5074338;28;20188;-43
2022/09/11 09:07:46;;;;;;;16.20;12.97;;;21.10;51.90;;;;;;5074163;28;20224;-41
2022/09/11 09:10:31;;;;;;;19.77;15.48;;;21.10;52.00;;;;;;5074633;28;20383;-42
2022/09/11 09:13:14;;;;;;;21.75;16.70;;;21.10;52.00;;;;;;5074243;28;20176;-43
2022/09/11 09:15:54;;;;;;;18.67;16.23;;;21.10;52.30;;;;;;5073798;28;20189;-43
2022/09/11 09:18:49;;;;;;;14.43;12.80;;;21.10;52.20;;;;;;5074054;28;20203;-42
2022/09/11 09:21:26;;;;;;;17.10;13.47;;;21.20;52.10;;;;;;5072894;28;20228;-42
2022/09/11 09:23:55;;;;;;;17.73;15.47;;;21.20;52.10;;;;;;5074084;28;20443;-41
2022/09/11 09:26:25;;;;;;;16.70;13.97;;;21.20;52.20;;;;;;5073718;28;20427;-42
2022/09/11 09:28:56;;;;;;;17.13;13.80;;;21.20;52.10;;;;;;5074321;28;20778;-41
2022/09/11 09:31:27;;;;;;;15.80;14.17;;;21.20;52.70;;;;;;5073937;28;20171;-42
2022/09/11 09:34:18;;;;;;;21.15;16.50;;;21.30;52.10;;;;;;5073806;28;20395;-43
2022/09/11 09:37:15;;;;;;;18.13;14.27;;;21.30;51.80;;;;;;5073504;28;20270;-42
2022/09/11 09:39:41;;;;;;;16.77;14.93;;;21.30;51.70;;;;;;5073003;28;20181;-41
2022/09/11 09:42:27;;;;;;;16.37;14.67;;;21.20;51.60;;;;;;5073790;28;20494;-41
2022/09/11 09:44:55;;;;;;;16.50;14.80;;;21.30;51.80;;;;;;5073594;28;20391;-43
2022/09/11 09:47:21;;;;;;;18.58;15.50;;;21.30;51.80;;;;;;5073217;28;20942;-43
2022/09/11 09:49:48;;;;;;;16.80;14.82;;;21.20;51.70;;;;;;5073513;28;20173;-41
2022/09/11 09:52:17;;;;;;;18.77;16.77;;;21.20;51.40;;;;;;5073542;28;20199;-42
2022/09/11 09:54:59;;;;;;;20.13;18.23;;;21.20;51.40;;;;;;5073634;28;20184;-42
2022/09/11 09:57:42;;;;;;;19.80;17.37;;;21.20;51.60;;;;;;5073031;28;20832;-42
2022/09/11 10:00:13;;;;;;;19.03;15.50;;;21.20;51.70;;;;;;5073293;28;20870;-43
2022/09/11 10:02:57;;;;;;;17.67;15.77;;;21.10;52.00;;;;;;5073033;28;20484;-41
2022/09/11 10:05:43;;;;;;;17.30;14.57;;;21.20;51.90;;;;;;5073053;28;20204;-41
2022/09/11 10:08:32;;;;;;;19.90;15.43;;;21.20;51.80;;;;;;5072414;28;20407;-43
2022/09/11 10:11:04;;;;;;;24.48;18.92;;;21.20;51.90;;;;;;5073024;28;20451;-42
2022/09/11 10:13:41;;;;;;;22.27;16.90;;;21.20;52.00;;;;;;5073018;28;20268;-42
2022/09/11 10:16:25;;;;;;;18.10;16.27;;;21.20;52.00;;;;;;5072658;28;20242;-42
2022/09/11 10:18:53;;;;;;;19.13;16.80;;;21.30;51.90;;;;;;5072956;28;20456;-41
2022/09/11 10:21:32;;;;;;;20.20;17.33;;;21.20;51.70;;;;;;5073035;28;20414;-41
2022/09/11 10:24:01;;;;;;;19.97;17.43;;;21.20;51.40;;;;;;5072989;28;20771;-41
2022/09/11 10:26:44;;;;;;;17.30;15.35;;;21.10;51.60;;;;;;5072615;28;20425;-43
2022/09/11 10:29:28;;;;;;;19.57;17.53;;;21.20;51.60;;;;;;5072909;28;20584;-42
2022/09/11 10:31:58;;;;;;;17.40;15.40;;;21.10;51.70;;;;;;5072514;28;20406;-42
2022/09/11 10:34:27;;;;;;;22.03;17.10;;;20.00;51.00;;;;;;5072591;28;20403;-43
2022/09/11 10:37:04;;;;;;;18.30;14.80;;;21.00;51.50;;;;;;5072552;28;20426;-43
2022/09/11 10:39:34;;;;;;;17.80;15.00;;;21.00;51.60;;;;;;5072760;28;20411;-42
2022/09/11 10:42:15;;;;;;;18.73;15.87;;;21.00;51.60;;;;;;5072532;28;20403;-42
2022/09/11 10:44:44;;;;;;;19.93;15.00;;;21.00;51.40;;;;;;5072309;28;20387;-43
2022/09/11 10:47:17;;;;;;;16.87;15.10;;;21.00;51.40;;;;;;5072157;28;20422;-41
2022/09/11 10:49:44;;;;;;;17.47;15.60;;;20.90;51.10;;;;;;5072407;28;20399;-42
2022/09/11 10:52:10;;;;;;;15.90;14.30;;;20.90;51.20;;;;;;5072450;28;20401;-42
2022/09/11 10:54:43;;;;;;;17.10;15.30;;;20.90;51.40;;;;;;5072318;28;20395;-41
2022/09/11 10:57:23;;;;;;;13.30;12.00;;;21.00;51.10;;;;;;5072252;28;20192;-43
2022/09/11 10:59:54;;;;;;;16.10;13.00;;;21.00;51.00;;;;;;5072176;28;20449;-42
2022/09/11 11:02:36;;;;;;;16.80;13.07;;;21.00;51.10;;;;;;5072141;28;20496;-43
2022/09/11 11:05:30;;;;;;;13.73;11.63;;;21.00;50.80;;;;;;5074783;23;20490;-41
2022/09/11 11:08:08;;;;;;;13.80;12.40;;;21.00;50.60;;;;;;5027214;28;20483;-42
2022/09/11 11:10:55;;;;;;;11.63;10.43;;;21.00;50.70;;;;;;5032175;28;20702;-42
2022/09/11 11:13:44;;;;;;;15.77;11.30;;;21.00;50.80;;;;;;5032083;28;20410;-41
2022/09/11 11:16:28;;;;;;;12.00;10.80;;;21.00;50.80;;;;;;5031850;28;20417;-42
2022/09/11 11:19:26;;;;;;;14.83;10.83;;;20.90;50.90;;;;;;5031965;28;20432;-42
2022/09/11 11:22:07;;;;;;;13.80;9.87;;;21.00;50.50;;;;;;5032329;28;20397;-41
2022/09/11 11:24:38;;;;;;;11.33;10.17;;;20.90;50.50;;;;;;5032437;28;20429;-41
2022/09/11 11:27:54;;;;;;;12.10;10.43;;;20.90;50.50;;;;;;5031748;28;20436;-42
2022/09/11 11:30:28;;;;;;;11.87;10.07;;;20.90;50.40;;;;;;4998129;28;20186;-42
2022/09/11 11:33:30;;;;;;;11.83;10.50;;;20.90;50.50;;;;;;5032276;28;20396;-43
2022/09/11 11:36:26;;;;;;;12.30;11.10;;;20.90;50.20;;;;;;5018235;28;20452;-42
2022/09/11 11:39:06;;;;;;;11.90;10.00;;;20.80;50.40;;;;;;5031915;28;20442;-43
2022/09/11 11:41:43;;;;;;;14.20;12.63;;;20.80;50.40;;;;;;5032011;28;20950;-41
2022/09/11 11:44:14;;;;;;;15.00;11.43;;;20.80;50.40;;;;;;5031784;28;20463;-42
2022/09/11 11:46:51;;;;;;;14.90;11.53;;;20.70;50.50;;;;;;5031485;28;20451;-42
2022/09/11 11:50:00;;;;;;;15.50;12.30;;;20.70;50.60;;;;;;5031813;28;20472;-41
2022/09/11 11:52:33;;;;;;;12.00;10.80;;;20.70;50.30;;;;;;5031844;28;20630;-41
2022/09/11 11:55:15;;;;;;;16.25;13.18;;;20.70;50.60;;;;;;5031684;28;20181;-42
2022/09/11 11:58:03;;;;;;;11.73;9.87;;;20.70;50.50;;;;;;5031526;28;20569;-41
2022/09/11 12:00:37;;;;;;;14.57;10.60;;;20.70;50.50;;;;;;5031767;28;20546;-42
2022/09/11 12:03:22;;;;;;;12.57;9.87;;;20.70;50.50;;;;;;5031485;28;20212;-41
2022/09/11 12:05:48;;;;;;;12.30;10.15;;;20.70;50.50;;;;;;5031255;28;20982;-41
2022/09/11 12:08:15;;;;;;;13.40;11.35;;;20.70;50.70;;;;;;5031643;28;20202;-41
2022/09/11 12:10:55;;;;;;;12.70;10.13;;;20.70;50.90;;;;;;5031542;28;20660;-42
2022/09/11 12:13:35;;;;;;;11.02;9.02;;;20.80;50.90;;;;;;5031541;28;20185;-42
2022/09/11 12:16:13;;;;;;;16.98;9.70;;;20.80;51.00;;;;;;5031292;28;20205;-42
2022/09/11 12:18:41;;;;;;;10.15;9.05;;;20.80;51.00;;;;;;5031526;28;20172;-42
2022/09/11 12:21:22;;;;;;;10.40;8.57;;;20.80;51.00;;;;;;5031526;28;20174;-42
2022/09/11 12:23:47;;;;;;;10.23;9.20;;;20.90;50.90;;;;;;5031469;28;20198;-41
2022/09/11 12:26:24;;;;;;;13.50;8.47;;;20.90;50.90;;;;;;5031099;28;20527;-42
2022/09/11 12:29:11;;;;;;;13.83;12.40;;;21.00;50.90;;;;;;5031486;28;20154;-41
2022/09/11 12:31:49;;;;;;;14.27;10.07;;;21.10;51.00;;;;;;5034752;28;20907;-42
2022/09/11 12:34:17;;;;;;;8.93;8.03;;;21.10;50.60;;;;;;5035173;28;20404;-41
2022/09/11 12:36:52;;;;;;;15.53;12.40;;;21.10;50.80;;;;;;5034616;28;20496;-42
2022/09/11 12:39:38;;;;;;;18.20;12.57;;;21.20;50.70;;;;;;5035124;28;20404;-41
2022/09/11 12:42:22;;;;;;;13.07;11.00;;;21.10;50.70;;;;;;5034777;28;20397;-41
2022/09/11 12:44:48;;;;;;;13.57;11.30;;;21.10;50.50;;;;;;5034951;28;20423;-42
2022/09/11 12:47:38;;;;;;;15.60;14.00;;;21.10;50.80;;;;;;5034525;28;20867;-42
2022/09/11 12:50:04;;;;;;;14.27;11.65;;;21.10;50.70;;;;;;5034872;28;20170;-41
2022/09/11 12:52:38;;;;;;;16.30;13.30;;;21.10;50.70;;;;;;5034643;28;20626;-42
2022/09/11 12:55:21;;;;;;;14.80;13.23;;;21.10;50.80;;;;;;5034631;28;20186;-42
2022/09/11 12:57:50;;;;;;;16.42;12.00;;;21.10;50.60;;;;;;5034659;28;20441;-41
2022/09/11 13:00:30;;;;;;;16.63;13.70;;;21.10;50.70;;;;;;5034853;28;20533;-43
2022/09/11 13:02:58;;;;;;;15.03;12.27;;;21.20;50.70;;;;;;5034505;28;20527;-42
2022/09/11 13:05:33;;;;;;;14.13;12.50;;;21.20;50.80;;;;;;5034150;28;20957;-43
2022/09/11 13:08:03;;;;;;;14.63;11.80;;;21.20;50.80;;;;;;5034352;28;20426;-43
2022/09/11 13:10:37;;;;;;;15.20;12.70;;;21.30;50.90;;;;;;5034516;28;20407;-41